Emblem, WY (82422)

7:46 PM MDT on October 21, 2014 (GMT -0600)
South Big Horn County | Change Station
CLOSE
Current Station
Airport
Location: Greybull,
Elevation: 3934 ft
Nearby Weather Stations

Elev 3934 ft 44.52 °N, 108.08 °W | Updated 53 minutes ago

Partly Cloudy
Partly Cloudy
63 °F
Feels Like 63 °F
N
10
Wind Variable Wind from NW
Gusts 24 mph

Today
High -- | Low -- °F
--% Chance of Precip.
Yesterday
High -- | Low -- °F
Precip. -- in
7:36 AM 6:19 PM
Waning Crescent, 3% visible
Pressure 29.80 in
Visibility 10.0 miles
Clouds Clear
Dew Point 26 °F
Humidity 25%
Rainfall 0.00 in
Snow Depth Not available.
UV 0 out of 12
Pollen 2.30 out of 12
Air Quality Not available.
Flu Activity Sporadic
METAR KGEY 220053Z AUTO 31009G21KT 10SM CLR 17/M03 A2981 RMK AO2 SLP090 T01721033

More Conditions Fewer Conditions

Pressure 29.80 in
Visibility 10.0 miles
Clouds Clear
Dew Point 26 °F
Humidity 25%
Rainfall 0.00 in
Snow Depth Not available.
UV 0 out of 12
Pollen 2.30 out of 12
Air Quality Not available.
Flu Activity Sporadic
METAR KGEY 220053Z AUTO 31009G21KT 10SM CLR 17/M03 A2981 RMK AO2 SLP090 T01721033

More Conditions Fewer Conditions

10-Day Weather Forecast

Almanac

Astronomy

Oct. 21, 2014 Rise Set
Actual Time 7:36 AM MDT 6:19 PM MDT
Civil Twilight 7:06 AM MDT 6:48 PM MDT
Nautical Twilight 6:32 AM MDT 7:22 PM MDT
Astronomical Twilight 5:59 AM MDT 7:56 PM MDT
Moon 5:18 AM MDT (10/21) 5:18 PM MDT (10/21)
Length of Visible Light 11h 41m
Length of Day
10h 42m
Tomorrow will be 2m 54s shorter.
Waning Crescent, 3% of the Moon is Illuminated
Today
Waning Crescent
Oct 23
New
Oct 30
First Quarter
Nov 6
Full
Nov 14
Last Quarter

Today's Extremes

State Highs State Lows

Community

WunderPhotos

Upload Photos

1,763,843 photos uploaded!

Nearby

Snow Depth

Station Depth Elevation
Evening Star 1 in 9200 ft
Sylvan Lake 0 in 8420 ft
Two Ocean Plateau 0 in 9240 ft
Togwotee Pass 0 in 7980 ft
Thumb Divide 1 in 7980 ft

Earthquake Activity

City Distance Mag. Time & Date
No recent earthquake activity has been reported nearby.
Minimum magnitude displayed is 2.5.

Coastal Water Temperatures

Place Temperature
No Stations Reporting

Nearby Weather Stations